WZZ58WN LCLK-UGKO
Flight info
| Callsign | WZZ58WN |
|---|---|
| Flight time | 1h 41m |
| Altitude | 38000 |
| Route | PHA M31 GENOS DCT PEDER M855 TOMBI UA16 AYT/N0451F390 UR55 MUT/N0452F380 UA285 SELVI/N0449F390 UA285 SIV UW706 TBN UG67 SARPI DCT TUZZA |
| Aircraft | A20N/M-SDE1E2E3FGIJ1J4RWXY/LB1 |
Departure
| Time | 2026-04-25 11:55 |
|---|---|
| Airport | Larnaca International Airport (LCLK) |
Arrival
| Time | 2026-04-25 13:37 |
|---|---|
| Airport | David the Builder Kutaisi International Airport (UGKO) |
| Time | Latitude | Longitude | Altitude | Speed | Heading |
|---|---|---|---|---|---|
| 2026-04-25 10:13 | 34.86735 | 33.60701 | 20 ft | 0 kts | 225° |
| 2026-04-25 11:46 | 34.86740 | 33.60706 | 20 ft | 2 kts | 223° |
| 2026-04-25 11:46 | 34.86752 | 33.60720 | 24 ft | 2 kts | 222° |
| 2026-04-25 11:46 | 34.86764 | 33.60734 | 21 ft | 2 kts | 220° |
| 2026-04-25 11:47 | 34.86777 | 33.60746 | 20 ft | 2 kts | 214° |
| 2026-04-25 11:47 | 34.86791 | 33.60757 | 22 ft | 2 kts | 199° |
| 2026-04-25 11:47 | 34.86807 | 33.60758 | 21 ft | 2 kts | 144° |
| 2026-04-25 11:47 | 34.86812 | 33.60753 | 21 ft | 0 kts | 136° |
| 2026-04-25 11:50 | 34.86810 | 33.60755 | 21 ft | 0 kts | 136° |
| 2026-04-25 11:51 | 34.86795 | 33.60773 | 24 ft | 7 kts | 136° |
| 2026-04-25 11:51 | 34.86737 | 33.60842 | 20 ft | 14 kts | 135° |
| 2026-04-25 11:51 | 34.86675 | 33.60918 | 20 ft | 8 kts | 135° |
| 2026-04-25 11:51 | 34.86620 | 33.60955 | 20 ft | 10 kts | 189° |
| 2026-04-25 11:52 | 34.86565 | 33.60894 | 20 ft | 12 kts | 227° |
| 2026-04-25 11:52 | 34.86501 | 33.60824 | 23 ft | 12 kts | 222° |
| 2026-04-25 11:52 | 34.86431 | 33.60826 | 20 ft | 11 kts | 134° |
| 2026-04-25 11:52 | 34.86435 | 33.60912 | 20 ft | 11 kts | 74° |
| 2026-04-25 11:53 | 34.86456 | 33.61014 | 21 ft | 13 kts | 77° |
| 2026-04-25 11:53 | 34.86481 | 33.61128 | 21 ft | 9 kts | 75° |
| 2026-04-25 11:53 | 34.86485 | 33.61191 | 21 ft | 8 kts | 113° |
| 2026-04-25 11:53 | 34.86459 | 33.61260 | 21 ft | 10 kts | 83° |
| 2026-04-25 11:54 | 34.86505 | 33.61329 | 21 ft | 12 kts | 46° |
| 2026-04-25 11:54 | 34.86517 | 33.61344 | 21 ft | 0 kts | 46° |
| 2026-04-25 11:54 | 34.86819 | 33.61716 | 20 ft | 91 kts | 44° |
| 2026-04-25 11:55 | 34.87397 | 33.62422 | 19 ft | 142 kts | 45° |
| 2026-04-25 11:55 | 34.88165 | 33.63382 | 261 ft | 163 kts | 48° |
| 2026-04-25 11:55 | 34.88958 | 33.64365 | 934 ft | 164 kts | 46° |
| 2026-04-25 11:55 | 34.89767 | 33.65379 | 1532 ft | 171 kts | 45° |
| 2026-04-25 11:56 | 34.90624 | 33.66444 | 2077 ft | 180 kts | 45° |
| 2026-04-25 11:56 | 34.91521 | 33.67552 | 2661 ft | 188 kts | 44° |
| 2026-04-25 11:56 | 34.92446 | 33.68767 | 3177 ft | 207 kts | 56° |
| 2026-04-25 11:56 | 34.92879 | 33.70511 | 3739 ft | 228 kts | 90° |
| 2026-04-25 11:57 | 34.92422 | 33.72385 | 4636 ft | 237 kts | 123° |
| 2026-04-25 11:57 | 34.91212 | 33.73731 | 5643 ft | 239 kts | 155° |
| 2026-04-25 11:57 | 34.89610 | 33.74142 | 6653 ft | 237 kts | 186° |
| 2026-04-25 11:57 | 34.88074 | 33.73504 | 7641 ft | 236 kts | 216° |
| 2026-04-25 11:58 | 34.87023 | 33.71989 | 8604 ft | 239 kts | 246° |
| 2026-04-25 11:58 | 34.86747 | 33.70017 | 9521 ft | 246 kts | 274° |
| 2026-04-25 11:58 | 34.87032 | 33.67924 | 10474 ft | 248 kts | 276° |
| 2026-04-25 11:58 | 34.87214 | 33.65833 | 11387 ft | 249 kts | 271° |
| 2026-04-25 11:59 | 34.87299 | 33.63725 | 12296 ft | 250 kts | 269° |
| 2026-04-25 11:59 | 34.87209 | 33.61607 | 13173 ft | 251 kts | 259° |
| 2026-04-25 11:59 | 34.86893 | 33.59467 | 13828 ft | 266 kts | 258° |
| 2026-04-25 12:00 | 34.87558 | 33.54687 | 14352 ft | 325 kts | 300° |
| 2026-04-25 12:00 | 34.89188 | 33.52616 | 14571 ft | 356 kts | 322° |
| 2026-04-25 12:00 | 34.94107 | 33.51102 | 15873 ft | 383 kts | 2° |
| 2026-04-25 12:01 | 34.96774 | 33.51512 | 16599 ft | 389 kts | 5° |
| 2026-04-25 12:01 | 34.99483 | 33.51841 | 17331 ft | 393 kts | 1° |
| 2026-04-25 12:01 | 35.02227 | 33.51899 | 18066 ft | 396 kts | 356° |
| 2026-04-25 12:01 | 35.04991 | 33.51737 | 18705 ft | 400 kts | 353° |
| 2026-04-25 12:02 | 35.10550 | 33.51115 | 19952 ft | 408 kts | 351° |
| 2026-04-25 12:02 | 35.13426 | 33.50751 | 20587 ft | 412 kts | 352° |
| 2026-04-25 12:02 | 35.16298 | 33.50388 | 21200 ft | 417 kts | 352° |
| 2026-04-25 12:03 | 35.19158 | 33.50031 | 21795 ft | 421 kts | 352° |
| 2026-04-25 12:03 | 35.22089 | 33.49668 | 22388 ft | 426 kts | 352° |
| 2026-04-25 12:03 | 35.25050 | 33.49303 | 22988 ft | 430 kts | 352° |
| 2026-04-25 12:03 | 35.28046 | 33.48936 | 23577 ft | 435 kts | 352° |
| 2026-04-25 12:04 | 35.31071 | 33.48565 | 24081 ft | 438 kts | 352° |
| 2026-04-25 12:04 | 35.34113 | 33.48192 | 24590 ft | 441 kts | 352° |
| 2026-04-25 12:04 | 35.37174 | 33.47817 | 25135 ft | 444 kts | 352° |
| 2026-04-25 12:04 | 35.40257 | 33.47439 | 25631 ft | 447 kts | 352° |
| 2026-04-25 12:05 | 35.43361 | 33.47058 | 26112 ft | 450 kts | 352° |
| 2026-04-25 12:05 | 35.46483 | 33.46674 | 26601 ft | 452 kts | 352° |
| 2026-04-25 12:05 | 35.49626 | 33.46288 | 27081 ft | 455 kts | 352° |
| 2026-04-25 12:05 | 35.52783 | 33.45900 | 27542 ft | 458 kts | 352° |
| 2026-04-25 12:06 | 35.55963 | 33.45508 | 27985 ft | 460 kts | 352° |
| 2026-04-25 12:06 | 35.59160 | 33.45114 | 28413 ft | 463 kts | 352° |
| 2026-04-25 12:06 | 35.62374 | 33.44717 | 28832 ft | 466 kts | 352° |
| 2026-04-25 12:06 | 35.65608 | 33.44318 | 29224 ft | 468 kts | 352° |
| 2026-04-25 12:07 | 35.68860 | 33.43916 | 29610 ft | 471 kts | 352° |
| 2026-04-25 12:07 | 35.72128 | 33.43511 | 29995 ft | 474 kts | 352° |
| 2026-04-25 12:07 | 35.75413 | 33.43105 | 30330 ft | 476 kts | 352° |
| 2026-04-25 12:07 | 35.78713 | 33.42696 | 30688 ft | 477 kts | 352° |
| 2026-04-25 12:08 | 35.82025 | 33.42286 | 31056 ft | 479 kts | 352° |
| 2026-04-25 12:08 | 35.85339 | 33.41875 | 31477 ft | 479 kts | 352° |
| 2026-04-25 12:08 | 35.88650 | 33.41465 | 31956 ft | 477 kts | 352° |
| 2026-04-25 12:08 | 35.91943 | 33.41057 | 32437 ft | 475 kts | 352° |
| 2026-04-25 12:09 | 35.94118 | 33.40787 | 32757 ft | 474 kts | 352° |
| 2026-04-25 12:09 | 35.98497 | 33.40243 | 33384 ft | 471 kts | 352° |
| 2026-04-25 12:09 | 36.01751 | 33.39837 | 33846 ft | 469 kts | 352° |
| 2026-04-25 12:09 | 36.04994 | 33.39434 | 34233 ft | 468 kts | 351° |
| 2026-04-25 12:10 | 36.08233 | 33.39030 | 34575 ft | 467 kts | 351° |
| 2026-04-25 12:10 | 36.11463 | 33.38626 | 34892 ft | 467 kts | 351° |
| 2026-04-25 12:10 | 36.14693 | 33.38222 | 35204 ft | 466 kts | 351° |
| 2026-04-25 12:10 | 36.17917 | 33.37819 | 35523 ft | 465 kts | 351° |
| 2026-04-25 12:11 | 36.21139 | 33.37416 | 35835 ft | 465 kts | 351° |
| 2026-04-25 12:11 | 36.24353 | 33.37014 | 36129 ft | 465 kts | 351° |
| 2026-04-25 12:11 | 36.27571 | 33.36610 | 36421 ft | 464 kts | 351° |
| 2026-04-25 12:11 | 36.30785 | 33.36207 | 36700 ft | 464 kts | 351° |
| 2026-04-25 12:12 | 36.33997 | 33.35803 | 36969 ft | 464 kts | 351° |
| 2026-04-25 12:12 | 36.36123 | 33.35536 | 37133 ft | 464 kts | 351° |
| 2026-04-25 12:12 | 36.40415 | 33.34996 | 37475 ft | 463 kts | 350° |
| 2026-04-25 12:12 | 36.43619 | 33.34592 | 37652 ft | 464 kts | 350° |
| 2026-04-25 12:13 | 36.46836 | 33.34187 | 37921 ft | 463 kts | 350° |
| 2026-04-25 12:13 | 36.50044 | 33.33783 | 38006 ft | 463 kts | 350° |
| 2026-04-25 12:13 | 36.56443 | 33.32976 | 38009 ft | 461 kts | 350° |
| 2026-04-25 12:14 | 36.62835 | 33.32167 | 38008 ft | 462 kts | 350° |
| 2026-04-25 12:14 | 36.69226 | 33.31358 | 38014 ft | 461 kts | 350° |
| 2026-04-25 12:15 | 36.75609 | 33.30548 | 38020 ft | 461 kts | 350° |
| 2026-04-25 12:15 | 36.82036 | 33.30287 | 38021 ft | 468 kts | 4° |
| 2026-04-25 12:16 | 36.85191 | 33.31104 | 38023 ft | 472 kts | 15° |
| 2026-04-25 12:16 | 36.88251 | 33.32620 | 38026 ft | 475 kts | 25° |
| 2026-04-25 12:16 | 36.91065 | 33.34786 | 38025 ft | 477 kts | 36° |
| 2026-04-25 12:16 | 36.93579 | 33.37503 | 38031 ft | 478 kts | 41° |
| 2026-04-25 12:17 | 36.98477 | 33.43125 | 38031 ft | 478 kts | 41° |
| 2026-04-25 12:17 | 37.03379 | 33.48746 | 38036 ft | 478 kts | 41° |
| 2026-04-25 12:18 | 37.08280 | 33.54381 | 38036 ft | 478 kts | 41° |
| 2026-04-25 12:18 | 37.13176 | 33.60024 | 38041 ft | 479 kts | 41° |
| 2026-04-25 12:19 | 37.20520 | 33.68509 | 38040 ft | 479 kts | 42° |
| 2026-04-25 12:20 | 37.25416 | 33.74177 | 38040 ft | 479 kts | 42° |
| 2026-04-25 12:20 | 37.30316 | 33.79863 | 38046 ft | 480 kts | 42° |
| 2026-04-25 12:21 | 37.35216 | 33.85556 | 38043 ft | 480 kts | 42° |
| 2026-04-25 12:21 | 37.40110 | 33.91254 | 38049 ft | 479 kts | 42° |
| 2026-04-25 12:22 | 37.45003 | 33.96960 | 38039 ft | 479 kts | 42° |
| 2026-04-25 12:22 | 37.49882 | 34.02672 | 38036 ft | 479 kts | 42° |
| 2026-04-25 12:23 | 37.54759 | 34.08397 | 38032 ft | 479 kts | 42° |
| 2026-04-25 12:23 | 37.59624 | 34.14117 | 38033 ft | 478 kts | 42° |
| 2026-04-25 12:24 | 37.64489 | 34.19847 | 38008 ft | 478 kts | 42° |
| 2026-04-25 12:24 | 37.68529 | 34.24612 | 37993 ft | 478 kts | 42° |
| 2026-04-25 12:25 | 37.73380 | 34.30345 | 37968 ft | 478 kts | 42° |
| 2026-04-25 12:25 | 37.78228 | 34.36085 | 37946 ft | 477 kts | 42° |
| 2026-04-25 12:26 | 37.83069 | 34.41827 | 37938 ft | 477 kts | 42° |
| 2026-04-25 12:26 | 37.87904 | 34.47573 | 37939 ft | 477 kts | 42° |
| 2026-04-25 12:27 | 37.92733 | 34.53318 | 37937 ft | 477 kts | 42° |
| 2026-04-25 12:27 | 37.97568 | 34.59068 | 37958 ft | 477 kts | 42° |
| 2026-04-25 12:28 | 38.02383 | 34.64805 | 37982 ft | 477 kts | 42° |
| 2026-04-25 12:28 | 38.07226 | 34.70588 | 38009 ft | 476 kts | 42° |
| 2026-04-25 12:29 | 38.12051 | 34.76360 | 38033 ft | 476 kts | 42° |
| 2026-04-25 12:29 | 38.16870 | 34.82138 | 38037 ft | 476 kts | 42° |
| 2026-04-25 12:30 | 38.21688 | 34.87925 | 38038 ft | 477 kts | 42° |
| 2026-04-25 12:30 | 38.26504 | 34.93721 | 38044 ft | 476 kts | 42° |
| 2026-04-25 12:31 | 38.31320 | 34.99507 | 38047 ft | 476 kts | 41° |
| 2026-04-25 12:31 | 38.36142 | 35.05293 | 38047 ft | 476 kts | 41° |
| 2026-04-25 12:32 | 38.41139 | 35.10790 | 38039 ft | 473 kts | 38° |
| 2026-04-25 12:32 | 38.46173 | 35.16191 | 38043 ft | 473 kts | 38° |
| 2026-04-25 12:33 | 38.51201 | 35.21600 | 38045 ft | 472 kts | 38° |
| 2026-04-25 12:33 | 38.55946 | 35.27418 | 38047 ft | 473 kts | 43° |
| 2026-04-25 12:34 | 38.60610 | 35.33352 | 38050 ft | 473 kts | 43° |
| 2026-04-25 12:34 | 38.65268 | 35.39284 | 38047 ft | 473 kts | 43° |
| 2026-04-25 12:35 | 38.69918 | 35.45227 | 38045 ft | 472 kts | 43° |
| 2026-04-25 12:35 | 38.74561 | 35.51174 | 38046 ft | 472 kts | 43° |
| 2026-04-25 12:36 | 38.79198 | 35.57125 | 38033 ft | 472 kts | 43° |
| 2026-04-25 12:36 | 38.83827 | 35.63078 | 38039 ft | 471 kts | 44° |
| 2026-04-25 12:37 | 38.88456 | 35.69042 | 38039 ft | 472 kts | 44° |
| 2026-04-25 12:37 | 38.93087 | 35.75019 | 38040 ft | 472 kts | 44° |
| 2026-04-25 12:38 | 38.97764 | 35.80946 | 38054 ft | 472 kts | 42° |
| 2026-04-25 12:38 | 39.02478 | 35.86759 | 38051 ft | 473 kts | 42° |
| 2026-04-25 12:39 | 39.07218 | 35.92640 | 38060 ft | 474 kts | 43° |
| 2026-04-25 12:39 | 39.11958 | 35.98551 | 38060 ft | 475 kts | 43° |
| 2026-04-25 12:40 | 39.16698 | 36.04501 | 38066 ft | 476 kts | 44° |
| 2026-04-25 12:40 | 39.21286 | 36.10674 | 38064 ft | 477 kts | 45° |
| 2026-04-25 12:41 | 39.25858 | 36.16896 | 38080 ft | 478 kts | 45° |
| 2026-04-25 12:41 | 39.30454 | 36.23110 | 38072 ft | 479 kts | 45° |
| 2026-04-25 12:42 | 39.35059 | 36.29333 | 38072 ft | 480 kts | 45° |
| 2026-04-25 12:42 | 39.39666 | 36.35569 | 38076 ft | 480 kts | 45° |
| 2026-04-25 12:43 | 39.44277 | 36.41825 | 38075 ft | 480 kts | 45° |
| 2026-04-25 12:43 | 39.51166 | 36.51195 | 38069 ft | 479 kts | 45° |
| 2026-04-25 12:44 | 39.55752 | 36.57457 | 38075 ft | 479 kts | 45° |
| 2026-04-25 12:45 | 39.62603 | 36.66838 | 38104 ft | 479 kts | 45° |
| 2026-04-25 12:45 | 39.69472 | 36.76271 | 38129 ft | 479 kts | 45° |
| 2026-04-25 12:46 | 39.74046 | 36.82569 | 38148 ft | 479 kts | 45° |
| 2026-04-25 12:46 | 39.78462 | 36.89056 | 38150 ft | 480 kts | 52° |
| 2026-04-25 12:47 | 39.82006 | 36.96408 | 38147 ft | 480 kts | 60° |
| 2026-04-25 12:47 | 39.85295 | 37.03976 | 38143 ft | 480 kts | 60° |
| 2026-04-25 12:48 | 39.88590 | 37.11552 | 38119 ft | 481 kts | 60° |
| 2026-04-25 12:48 | 39.91874 | 37.19147 | 38108 ft | 482 kts | 60° |
| 2026-04-25 12:49 | 39.95158 | 37.26764 | 38081 ft | 482 kts | 60° |
| 2026-04-25 12:49 | 39.98438 | 37.34395 | 38071 ft | 483 kts | 60° |
| 2026-04-25 12:50 | 40.01717 | 37.42041 | 38074 ft | 483 kts | 60° |
| 2026-04-25 12:50 | 40.04996 | 37.49705 | 38068 ft | 484 kts | 60° |
| 2026-04-25 12:51 | 40.08272 | 37.57381 | 38065 ft | 484 kts | 60° |
| 2026-04-25 12:51 | 40.11561 | 37.65063 | 38072 ft | 484 kts | 60° |
| 2026-04-25 12:52 | 40.14852 | 37.72745 | 38072 ft | 485 kts | 60° |
| 2026-04-25 12:52 | 40.18139 | 37.80446 | 38077 ft | 485 kts | 60° |
| 2026-04-25 12:53 | 40.21422 | 37.88157 | 38066 ft | 484 kts | 60° |
| 2026-04-25 12:53 | 40.24685 | 37.95843 | 38068 ft | 484 kts | 60° |
| 2026-04-25 12:54 | 40.27946 | 38.03543 | 38079 ft | 483 kts | 60° |
| 2026-04-25 12:54 | 40.31197 | 38.11241 | 38096 ft | 483 kts | 60° |
| 2026-04-25 12:55 | 40.33889 | 38.17658 | 38094 ft | 483 kts | 61° |
| 2026-04-25 12:55 | 40.37503 | 38.26711 | 38115 ft | 482 kts | 62° |
| 2026-04-25 12:56 | 40.40709 | 38.34432 | 38110 ft | 482 kts | 59° |
| 2026-04-25 12:56 | 40.44047 | 38.42086 | 38115 ft | 483 kts | 59° |
| 2026-04-25 12:57 | 40.47361 | 38.49759 | 38121 ft | 484 kts | 60° |
| 2026-04-25 12:57 | 40.50653 | 38.57443 | 38119 ft | 482 kts | 60° |
| 2026-04-25 12:58 | 40.53855 | 38.65187 | 38118 ft | 482 kts | 61° |
| 2026-04-25 12:58 | 40.57005 | 38.72967 | 38109 ft | 481 kts | 61° |
| 2026-04-25 12:59 | 40.60153 | 38.80719 | 38098 ft | 481 kts | 61° |
| 2026-04-25 12:59 | 40.63300 | 38.88468 | 38087 ft | 479 kts | 61° |
| 2026-04-25 13:00 | 40.65399 | 38.93653 | 38107 ft | 482 kts | 61° |
| 2026-04-25 13:00 | 40.69578 | 39.04043 | 38097 ft | 482 kts | 61° |
| 2026-04-25 13:01 | 40.72705 | 39.11838 | 38093 ft | 483 kts | 61° |
| 2026-04-25 13:01 | 40.75840 | 39.19672 | 38103 ft | 482 kts | 61° |
| 2026-04-25 13:02 | 40.78942 | 39.27447 | 38119 ft | 483 kts | 61° |
| 2026-04-25 13:02 | 40.82064 | 39.35287 | 38116 ft | 482 kts | 62° |
| 2026-04-25 13:03 | 40.85182 | 39.43142 | 38143 ft | 484 kts | 62° |
| 2026-04-25 13:03 | 40.88304 | 39.51026 | 38140 ft | 484 kts | 62° |
| 2026-04-25 13:04 | 40.91406 | 39.58882 | 38156 ft | 483 kts | 62° |
| 2026-04-25 13:04 | 40.94510 | 39.66763 | 38165 ft | 483 kts | 62° |
| 2026-04-25 13:05 | 40.97604 | 39.74639 | 38062 ft | 480 kts | 62° |
| 2026-04-25 13:05 | 40.99135 | 39.78546 | 37660 ft | 477 kts | 62° |
| 2026-04-25 13:05 | 41.00544 | 39.82513 | 37081 ft | 475 kts | 65° |
| 2026-04-25 13:06 | 41.01906 | 39.86488 | 36453 ft | 474 kts | 65° |
| 2026-04-25 13:06 | 41.03275 | 39.90457 | 35819 ft | 472 kts | 65° |
| 2026-04-25 13:06 | 41.04636 | 39.94405 | 35192 ft | 471 kts | 65° |
| 2026-04-25 13:06 | 41.05991 | 39.98345 | 34578 ft | 469 kts | 65° |
| 2026-04-25 13:07 | 41.07338 | 40.02271 | 33926 ft | 467 kts | 65° |
| 2026-04-25 13:07 | 41.08680 | 40.06193 | 33104 ft | 468 kts | 65° |
| 2026-04-25 13:07 | 41.10026 | 40.10133 | 32259 ft | 470 kts | 65° |
| 2026-04-25 13:07 | 41.11375 | 40.14085 | 31390 ft | 472 kts | 65° |
| 2026-04-25 13:08 | 41.12728 | 40.18057 | 30545 ft | 474 kts | 65° |
| 2026-04-25 13:08 | 41.14080 | 40.22035 | 29780 ft | 472 kts | 65° |
| 2026-04-25 13:08 | 41.15420 | 40.25993 | 29043 ft | 468 kts | 65° |
| 2026-04-25 13:08 | 41.16745 | 40.29912 | 28455 ft | 462 kts | 65° |
| 2026-04-25 13:09 | 41.18053 | 40.33784 | 27799 ft | 458 kts | 65° |
| 2026-04-25 13:09 | 41.19349 | 40.37625 | 27144 ft | 454 kts | 65° |
| 2026-04-25 13:09 | 41.20634 | 40.41437 | 26511 ft | 451 kts | 65° |
| 2026-04-25 13:09 | 41.21911 | 40.45228 | 25896 ft | 448 kts | 65° |
| 2026-04-25 13:10 | 41.23177 | 40.48989 | 25277 ft | 444 kts | 65° |
| 2026-04-25 13:10 | 41.24416 | 40.52672 | 24703 ft | 441 kts | 65° |
| 2026-04-25 13:10 | 41.25679 | 40.56435 | 24110 ft | 438 kts | 65° |
| 2026-04-25 13:10 | 41.26914 | 40.60119 | 23496 ft | 435 kts | 65° |
| 2026-04-25 13:11 | 41.28123 | 40.63728 | 22892 ft | 431 kts | 64° |
| 2026-04-25 13:11 | 41.29333 | 40.67350 | 22278 ft | 427 kts | 64° |
| 2026-04-25 13:11 | 41.30533 | 40.70944 | 21669 ft | 423 kts | 64° |
| 2026-04-25 13:11 | 41.31721 | 40.74506 | 21075 ft | 420 kts | 64° |
| 2026-04-25 13:12 | 41.32900 | 40.78044 | 20478 ft | 417 kts | 64° |
| 2026-04-25 13:12 | 41.34067 | 40.81553 | 19924 ft | 413 kts | 64° |
| 2026-04-25 13:12 | 41.35223 | 40.85033 | 19356 ft | 410 kts | 64° |
| 2026-04-25 13:12 | 41.35611 | 40.86204 | 19149 ft | 409 kts | 64° |
| 2026-04-25 13:13 | 41.37139 | 40.90813 | 18417 ft | 405 kts | 64° |
| 2026-04-25 13:13 | 41.38256 | 40.94185 | 17831 ft | 401 kts | 64° |
| 2026-04-25 13:13 | 41.39391 | 40.97615 | 17262 ft | 397 kts | 64° |
| 2026-04-25 13:13 | 41.40484 | 41.00924 | 16713 ft | 394 kts | 64° |
| 2026-04-25 13:14 | 41.41579 | 41.04242 | 16176 ft | 390 kts | 64° |
| 2026-04-25 13:14 | 41.42664 | 41.07536 | 15642 ft | 386 kts | 64° |
| 2026-04-25 13:14 | 41.43738 | 41.10798 | 15121 ft | 383 kts | 64° |
| 2026-04-25 13:14 | 41.44801 | 41.14031 | 14610 ft | 379 kts | 64° |
| 2026-04-25 13:15 | 41.45511 | 41.16199 | 14266 ft | 377 kts | 64° |
| 2026-04-25 13:15 | 41.46890 | 41.20418 | 13566 ft | 373 kts | 64° |
| 2026-04-25 13:15 | 41.47921 | 41.23573 | 13012 ft | 370 kts | 65° |
| 2026-04-25 13:15 | 41.48943 | 41.26705 | 12455 ft | 367 kts | 65° |
| 2026-04-25 13:16 | 41.49959 | 41.29816 | 11919 ft | 364 kts | 65° |
| 2026-04-25 13:16 | 41.50967 | 41.32902 | 11395 ft | 361 kts | 65° |
| 2026-04-25 13:16 | 41.51962 | 41.35951 | 11034 ft | 354 kts | 65° |
| 2026-04-25 13:16 | 41.52928 | 41.38918 | 10786 ft | 344 kts | 65° |
| 2026-04-25 13:17 | 41.53866 | 41.41803 | 10543 ft | 334 kts | 66° |
| 2026-04-25 13:17 | 41.54879 | 41.44540 | 10300 ft | 324 kts | 57° |
| 2026-04-25 13:17 | 41.56209 | 41.46911 | 10051 ft | 314 kts | 45° |
| 2026-04-25 13:17 | 41.57680 | 41.49014 | 9788 ft | 306 kts | 45° |
| 2026-04-25 13:18 | 41.59120 | 41.51100 | 9534 ft | 306 kts | 45° |
| 2026-04-25 13:18 | 41.60552 | 41.53186 | 9267 ft | 303 kts | 45° |
| 2026-04-25 13:18 | 41.61966 | 41.55250 | 9005 ft | 300 kts | 46° |
| 2026-04-25 13:18 | 41.63373 | 41.57307 | 8746 ft | 299 kts | 46° |
| 2026-04-25 13:19 | 41.64767 | 41.59342 | 8490 ft | 297 kts | 46° |
| 2026-04-25 13:19 | 41.66159 | 41.61378 | 8234 ft | 294 kts | 46° |
| 2026-04-25 13:19 | 41.67539 | 41.63395 | 7983 ft | 293 kts | 46° |
| 2026-04-25 13:19 | 41.68444 | 41.64719 | 7819 ft | 291 kts | 46° |
| 2026-04-25 13:20 | 41.70265 | 41.67386 | 7484 ft | 289 kts | 46° |
| 2026-04-25 13:20 | 41.71616 | 41.69366 | 7231 ft | 287 kts | 46° |
| 2026-04-25 13:20 | 41.72955 | 41.71329 | 7036 ft | 285 kts | 46° |
| 2026-04-25 13:20 | 41.74290 | 41.73288 | 7000 ft | 284 kts | 46° |
| 2026-04-25 13:21 | 41.75626 | 41.75249 | 6998 ft | 285 kts | 47° |
| 2026-04-25 13:21 | 41.76957 | 41.77210 | 6998 ft | 285 kts | 46° |
| 2026-04-25 13:21 | 41.78288 | 41.79170 | 7003 ft | 284 kts | 46° |
| 2026-04-25 13:21 | 41.79626 | 41.81138 | 6998 ft | 286 kts | 46° |
| 2026-04-25 13:22 | 41.80961 | 41.83102 | 7003 ft | 286 kts | 46° |
| 2026-04-25 13:22 | 41.82297 | 41.85070 | 7001 ft | 285 kts | 46° |
| 2026-04-25 13:22 | 41.83635 | 41.87041 | 7004 ft | 286 kts | 47° |
| 2026-04-25 13:23 | 41.86308 | 41.90984 | 7003 ft | 285 kts | 46° |
| 2026-04-25 13:23 | 41.87645 | 41.92964 | 6991 ft | 286 kts | 48° |
| 2026-04-25 13:23 | 41.88817 | 41.95131 | 7005 ft | 288 kts | 57° |
| 2026-04-25 13:23 | 41.89909 | 41.97393 | 7003 ft | 288 kts | 56° |
| 2026-04-25 13:24 | 41.91005 | 41.99641 | 7000 ft | 288 kts | 56° |
| 2026-04-25 13:24 | 41.92106 | 42.01889 | 7003 ft | 288 kts | 56° |
| 2026-04-25 13:24 | 41.93206 | 42.04136 | 7004 ft | 289 kts | 56° |
| 2026-04-25 13:24 | 41.94309 | 42.06388 | 7005 ft | 287 kts | 56° |
| 2026-04-25 13:25 | 41.95405 | 42.08631 | 7003 ft | 287 kts | 56° |
| 2026-04-25 13:25 | 41.96482 | 42.10846 | 7005 ft | 287 kts | 56° |
| 2026-04-25 13:25 | 41.97573 | 42.13090 | 7005 ft | 287 kts | 56° |
| 2026-04-25 13:25 | 41.98665 | 42.15331 | 7005 ft | 287 kts | 56° |
| 2026-04-25 13:26 | 41.99755 | 42.17573 | 6999 ft | 287 kts | 56° |
| 2026-04-25 13:26 | 42.00849 | 42.19816 | 7003 ft | 287 kts | 56° |
| 2026-04-25 13:26 | 42.01944 | 42.22064 | 7000 ft | 288 kts | 56° |
| 2026-04-25 13:26 | 42.03037 | 42.24319 | 6998 ft | 287 kts | 56° |
| 2026-04-25 13:27 | 42.04054 | 42.26631 | 6999 ft | 288 kts | 64° |
| 2026-04-25 13:27 | 42.04712 | 42.29176 | 7002 ft | 289 kts | 77° |
| 2026-04-25 13:27 | 42.05108 | 42.31836 | 6993 ft | 289 kts | 78° |
| 2026-04-25 13:27 | 42.05510 | 42.34472 | 6799 ft | 287 kts | 78° |
| 2026-04-25 13:28 | 42.05918 | 42.37093 | 6483 ft | 285 kts | 78° |
| 2026-04-25 13:28 | 42.06185 | 42.38817 | 6274 ft | 284 kts | 78° |
| 2026-04-25 13:28 | 42.06720 | 42.42267 | 6026 ft | 284 kts | 78° |
| 2026-04-25 13:28 | 42.07126 | 42.44877 | 6004 ft | 284 kts | 78° |
| 2026-04-25 13:29 | 42.07530 | 42.47484 | 6003 ft | 285 kts | 78° |
| 2026-04-25 13:29 | 42.07935 | 42.50097 | 6002 ft | 286 kts | 78° |
| 2026-04-25 13:29 | 42.08338 | 42.52712 | 5998 ft | 284 kts | 78° |
| 2026-04-25 13:30 | 42.09133 | 42.57895 | 5440 ft | 282 kts | 78° |
| 2026-04-25 13:30 | 42.09529 | 42.60470 | 5105 ft | 280 kts | 78° |
| 2026-04-25 13:30 | 42.09923 | 42.63027 | 4766 ft | 278 kts | 78° |
| 2026-04-25 13:31 | 42.10694 | 42.68071 | 4203 ft | 270 kts | 78° |
| 2026-04-25 13:31 | 42.11227 | 42.70425 | 4075 ft | 257 kts | 58° |
| 2026-04-25 13:31 | 42.12407 | 42.72104 | 3996 ft | 242 kts | 28° |
| 2026-04-25 13:31 | 42.13943 | 42.72701 | 3900 ft | 224 kts | 355° |
| 2026-04-25 13:32 | 42.15430 | 42.72383 | 3821 ft | 211 kts | 345° |
| 2026-04-25 13:32 | 42.16828 | 42.71963 | 3733 ft | 200 kts | 344° |
| 2026-04-25 13:32 | 42.18167 | 42.71579 | 3580 ft | 197 kts | 345° |
| 2026-04-25 13:32 | 42.19434 | 42.70925 | 3207 ft | 197 kts | 315° |
| 2026-04-25 13:33 | 42.20041 | 42.69312 | 2926 ft | 196 kts | 277° |
| 2026-04-25 13:33 | 42.20048 | 42.67546 | 2843 ft | 185 kts | 265° |
| 2026-04-25 13:33 | 42.19876 | 42.65836 | 2585 ft | 179 kts | 261° |
| 2026-04-25 13:33 | 42.19734 | 42.64751 | 2437 ft | 175 kts | 261° |
| 2026-04-25 13:34 | 42.19473 | 42.62639 | 2118 ft | 167 kts | 261° |
| 2026-04-25 13:34 | 42.19284 | 42.61115 | 1889 ft | 162 kts | 261° |
| 2026-04-25 13:34 | 42.19103 | 42.59650 | 1672 ft | 154 kts | 261° |
| 2026-04-25 13:34 | 42.18937 | 42.58334 | 1465 ft | 136 kts | 261° |
| 2026-04-25 13:35 | 42.18788 | 42.57133 | 1288 ft | 125 kts | 261° |
| 2026-04-25 13:35 | 42.18643 | 42.55972 | 1119 ft | 128 kts | 261° |
| 2026-04-25 13:35 | 42.18492 | 42.54765 | 935 ft | 128 kts | 261° |
| 2026-04-25 13:35 | 42.18344 | 42.53573 | 768 ft | 130 kts | 261° |
| 2026-04-25 13:36 | 42.18197 | 42.52391 | 599 ft | 130 kts | 262° |
| 2026-04-25 13:36 | 42.18046 | 42.51184 | 418 ft | 130 kts | 262° |
| 2026-04-25 13:36 | 42.17898 | 42.49993 | 254 ft | 130 kts | 263° |
| 2026-04-25 13:36 | 42.17751 | 42.48805 | 157 ft | 125 kts | 263° |
| 2026-04-25 13:37 | 42.17651 | 42.47937 | 150 ft | 51 kts | 261° |
| 2026-04-25 13:37 | 42.17624 | 42.47733 | 149 ft | 17 kts | 259° |
| 2026-04-25 13:37 | 42.17600 | 42.47568 | 147 ft | 16 kts | 260° |
| 2026-04-25 13:37 | 42.17637 | 42.47474 | 146 ft | 14 kts | 340° |
| 2026-04-25 13:38 | 42.17744 | 42.47419 | 141 ft | 17 kts | 338° |
| 2026-04-25 13:38 | 42.17835 | 42.47371 | 140 ft | 7 kts | 339° |
| 2026-04-25 13:38 | 42.17887 | 42.47333 | 140 ft | 10 kts | 319° |
| 2026-04-25 13:38 | 42.17918 | 42.47234 | 140 ft | 13 kts | 273° |
| 2026-04-25 13:39 | 42.17903 | 42.47105 | 140 ft | 14 kts | 261° |
| 2026-04-25 13:39 | 42.17899 | 42.46993 | 140 ft | 10 kts | 297° |
| 2026-04-25 13:39 | 42.17965 | 42.46938 | 140 ft | 10 kts | 334° |
| 2026-04-25 13:39 | 42.18001 | 42.46915 | 140 ft | 6 kts | 334° |
| 2026-04-25 13:40 | 42.18044 | 42.46873 | 140 ft | 9 kts | 306° |
| 2026-04-25 13:40 | 42.18037 | 42.46790 | 140 ft | 8 kts | 255° |
| 2026-04-25 13:40 | 42.18016 | 42.46702 | 140 ft | 11 kts | 249° |
| 2026-04-25 13:40 | 42.18023 | 42.46640 | 140 ft | 7 kts | 316° |
| 2026-04-25 13:41 | 42.18078 | 42.46608 | 140 ft | 7 kts | 340° |
| 2026-04-25 13:41 | 42.18123 | 42.46596 | 140 ft | 6 kts | 14° |
| 2026-04-25 13:41 | 42.18148 | 42.46644 | 140 ft | 1 kts | 70° |
| 2026-04-25 13:41 | 42.18150 | 42.46650 | 140 ft | 0 kts | 69° |